createdAt,value
2023-03-19T00:01:13.983Z,15.180602006688963
2023-03-19T00:07:33.781Z,15.277591973244148
2023-03-19T00:13:53.928Z,17.013377926421406
2023-03-19T00:24:07.774Z,16.441471571906355
2023-03-19T00:36:58.969Z,17.127090301003346
2023-03-19T00:43:18.580Z,18.39799331103679
2023-03-19T00:52:10.893Z,18.565217391304348
2023-03-19T00:58:31.248Z,18.76923076923077
2023-03-19T01:07:54.706Z,17.956521739130434
2023-03-19T01:14:14.179Z,18.60200668896321
2023-03-19T01:26:14.403Z,19.29096989966555
2023-03-19T01:32:34.593Z,18.725752508361204
2023-03-19T01:38:55.020Z,19.535117056856187
2023-03-19T01:48:25.925Z,18.411371237458194
2023-03-19T01:54:47.638Z,18.34448160535117
2023-03-19T02:01:07.471Z,18.287625418060202
2023-03-19T02:07:28.164Z,18.17725752508361
2023-03-19T02:13:48.051Z,17.91973244147157
2023-03-19T02:20:09.310Z,16.642140468227424
2023-03-19T02:26:28.759Z,16.581939799331103
2023-03-19T02:32:47.930Z,15.137123745819398
2023-03-19T02:39:06.214Z,16.531772575250837
2023-03-19T02:45:25.948Z,16.45819397993311
2023-03-19T02:51:44.607Z,17.83277591973244
2023-03-19T02:58:03.408Z,18.05351170568562
2023-03-19T03:06:18.208Z,18.418060200668897
2023-03-19T03:12:37.279Z,18.14715719063545
2023-03-19T03:18:56.612Z,20.036789297658864
2023-03-19T03:25:16.021Z,18.438127090301002
2023-03-19T03:31:35.232Z,18.531772575250837
2023-03-19T03:41:19.126Z,19.732441471571907
2023-03-19T03:47:37.862Z,18.474916387959865
2023-03-19T04:00:04.545Z,18.632107023411372
2023-03-19T04:06:23.495Z,19.193979933110366
2023-03-19T04:12:42.433Z,20.046822742474916
2023-03-19T04:19:01.168Z,19.193979933110366
2023-03-19T04:25:20.249Z,20.578595317725753
2023-03-19T04:31:38.779Z,20.88294314381271
2023-03-19T04:40:28.002Z,21.82943143812709
2023-03-19T04:46:47.189Z,21.862876254180602
2023-03-19T04:53:05.939Z,20.745819397993312
2023-03-19T05:03:56.165Z,22.505016722408026
2023-03-19T05:10:16.795Z,21.782608695652176
2023-03-19T05:17:46.410Z,22.77257525083612
2023-03-19T05:24:04.975Z,23.82943143812709
2023-03-19T05:30:24.369Z,22.090301003344482
2023-03-19T05:36:43.517Z,22.548494983277592
2023-03-19T05:43:07.858Z,23.752508361204015
2023-03-19T05:49:29.793Z,24.076923076923077
2023-03-19T05:59:11.232Z,24.775919732441473
2023-03-19T06:08:37.566Z,22.792642140468228
2023-03-19T06:15:00.733Z,23.779264214046822
2023-03-19T06:33:22.638Z,23.816053511705686
2023-03-19T06:44:33.092Z,24.0
2023-03-19T06:50:56.947Z,23.923076923076923
2023-03-19T06:57:21.151Z,22.899665551839465
2023-03-19T07:09:36.405Z,24.040133779264213
2023-03-19T07:16:00.656Z,25.498327759197323
2023-03-19T07:22:26.209Z,24.05685618729097
2023-03-19T07:28:50.228Z,23.180602006688964
2023-03-19T07:36:26.178Z,22.49163879598662
2023-03-19T07:42:51.927Z,22.073578595317727
2023-03-19T07:51:45.278Z,21.387959866220736
2023-03-19T08:01:10.415Z,20.732441471571907
2023-03-19T08:07:32.784Z,20.17391304347826
2023-03-19T08:13:55.857Z,21.51170568561873
2023-03-19T08:20:18.535Z,21.220735785953178
2023-03-19T08:26:42.554Z,20.62876254180602
2023-03-19T08:35:29.674Z,22.50836120401338
2023-03-19T08:41:53.075Z,22.474916387959865
2023-03-19T08:56:08.665Z,19.93645484949833
2023-03-19T09:04:37.308Z,18.17056856187291
2023-03-19T09:10:59.361Z,17.26086956521739
2023-03-19T09:19:03.679Z,18.73913043478261
2023-03-19T09:25:37.950Z,17.67558528428094
2023-03-19T09:32:09.027Z,16.93645484949833
2023-03-19T09:38:37.977Z,16.11705685618729
2023-03-19T09:45:01.406Z,16.94314381270903
2023-03-19T09:51:34.096Z,16.842809364548494
2023-03-19T09:59:41.495Z,17.347826086956523
2023-03-19T10:09:03.795Z,14.836120401337793
2023-03-19T10:15:27.542Z,13.65551839464883
2023-03-19T10:21:50.603Z,13.25752508361204
2023-03-19T10:28:13.733Z,13.297658862876254
2023-03-19T10:34:37.537Z,14.093645484949834
2023-03-19T10:41:00.763Z,14.505016722408026
2023-03-19T10:50:38.624Z,14.73913043478261
2023-03-19T10:57:01.884Z,15.578595317725753
2023-03-19T11:03:25.901Z,14.909698996655518
2023-03-19T11:09:48.264Z,14.003344481605351
2023-03-19T11:16:12.998Z,14.461538461538462
2023-03-19T11:27:31.751Z,13.91304347826087
2023-03-19T11:33:54.400Z,15.899665551839465
2023-03-19T11:40:17.755Z,15.354515050167224
2023-03-19T11:46:48.051Z,15.799331103678929
2023-03-19T11:58:55.312Z,16.5752508361204
2023-03-19T12:05:21.280Z,16.672240802675585
2023-03-19T12:11:52.382Z,17.668896321070235
2023-03-19T12:18:22.937Z,18.1438127090301
2023-03-19T12:24:48.050Z,22.752508361204015
2023-03-19T12:31:39.917Z,31.795986622073578
2023-03-19T12:38:02.019Z,33.458193979933114
2023-03-19T13:02:01.357Z,31.71571906354515
2023-03-19T13:10:04.646Z,30.010033444816052
2023-03-19T13:16:27.634Z,28.842809364548494
2023-03-19T13:22:50.004Z,28.267558528428093
2023-03-19T13:29:12.811Z,30.0
2023-03-19T13:35:35.673Z,28.615384615384617
2023-03-19T13:41:59.498Z,29.076923076923077
2023-03-19T13:48:24.675Z,28.642140468227424
2023-03-19T14:02:28.951Z,22.327759197324415
2023-03-19T14:08:51.751Z,20.612040133779264
2023-03-19T14:15:16.070Z,20.244147157190636
2023-03-19T14:22:09.834Z,19.729096989966557
2023-03-19T14:28:34.202Z,20.779264214046822
2023-03-19T14:40:50.213Z,19.31438127090301
2023-03-19T14:54:12.867Z,16.94314381270903
2023-03-19T15:00:36.433Z,16.565217391304348
2023-03-19T15:06:59.171Z,14.979933110367893
2023-03-19T15:14:40.925Z,14.79598662207358
2023-03-19T15:21:04.065Z,15.498327759197325
2023-03-19T15:27:27.318Z,11.779264214046822
2023-03-19T15:33:50.999Z,14.080267558528428
2023-03-19T15:40:16.703Z,14.177257525083611
2023-03-19T15:46:39.872Z,14.003344481605351
2023-03-19T15:53:03.171Z,13.0
2023-03-19T16:01:58.833Z,12.414715719063546
2023-03-19T16:08:32.698Z,14.45819397993311
2023-03-19T16:15:29.495Z,14.779264214046822
2023-03-19T16:21:53.661Z,14.979933110367893
2023-03-19T16:34:04.282Z,13.608695652173912
2023-03-19T16:54:11.837Z,14.334448160535118
2023-03-19T17:00:41.168Z,13.836120401337793
2023-03-19T17:08:26.001Z,13.658862876254181
2023-03-19T17:16:44.109Z,13.715719063545151
2023-03-19T17:23:05.960Z,13.862876254180602
2023-03-19T17:33:09.946Z,12.946488294314381
2023-03-19T17:39:51.864Z,13.642140468227424
2023-03-19T17:46:14.129Z,13.919732441471572
2023-03-19T17:53:29.123Z,12.7123745819398
2023-03-19T17:59:56.558Z,13.538461538461538
2023-03-19T18:06:28.413Z,13.538461538461538
2023-03-19T18:17:59.424Z,15.361204013377927
2023-03-19T18:24:35.247Z,16.598662207357858
2023-03-19T18:31:25.954Z,16.588628762541806
2023-03-19T18:37:52.771Z,17.11705685618729
2023-03-19T18:51:12.271Z,22.986622073578594
2023-03-19T18:57:36.673Z,24.65886287625418
2023-03-19T19:04:01.571Z,26.88294314381271
2023-03-19T19:13:53.384Z,26.698996655518396
2023-03-19T19:25:11.310Z,28.066889632107024
2023-03-19T19:35:23.781Z,26.137123745819398
2023-03-19T19:41:48.368Z,28.37458193979933
2023-03-19T19:48:14.073Z,31.77257525083612
2023-03-19T19:59:14.413Z,34.17056856187291
2023-03-19T20:08:12.547Z,30.25083612040134
2023-03-19T20:14:42.940Z,33.65217391304348
2023-03-19T20:21:13.190Z,38.240802675585286
2023-03-19T20:33:59.042Z,39.11371237458194
2023-03-19T20:46:34.026Z,44.84615384615385
2023-03-19T20:53:04.018Z,44.635451505016725
2023-03-19T21:08:13.562Z,43.48494983277592
2023-03-19T21:14:38.364Z,45.331103678929765
2023-03-19T21:22:12.573Z,43.438127090301
2023-03-19T21:34:44.894Z,41.30434782608695
2023-03-19T21:43:48.822Z,38.42809364548495
2023-03-19T21:55:54.237Z,36.40468227424749
2023-03-19T22:02:13.434Z,35.2675585284281
2023-03-19T22:08:32.730Z,35.90635451505017
2023-03-19T22:21:20.424Z,34.99665551839465
2023-03-19T22:27:39.822Z,36.95986622073578
2023-03-19T22:33:58.986Z,36.51505016722408
2023-03-19T22:40:18.481Z,38.23411371237458
2023-03-19T22:46:44.590Z,37.264214046822744
2023-03-19T22:55:49.625Z,35.65217391304348
2023-03-19T23:02:09.457Z,36.28428093645485
2023-03-19T23:08:30.988Z,36.25752508361204
2023-03-19T23:14:49.967Z,37.25083612040134
2023-03-19T23:21:09.401Z,35.74247491638796
2023-03-19T23:37:21.791Z,33.49498327759197
2023-03-19T23:43:40.634Z,35.852842809364546
2023-03-19T23:53:58.475Z,36.83946488294314
